createdAt,value
2024-05-09T00:00:38.723Z,63.33
2024-05-09T00:01:32.806Z,63.39
2024-05-09T00:02:31.859Z,63.49
2024-05-09T00:03:31.892Z,63.80
2024-05-09T00:04:31.844Z,64.02
2024-05-09T00:05:31.922Z,63.86
2024-05-09T00:06:31.826Z,62.39
2024-05-09T00:07:31.804Z,62.29
2024-05-09T00:08:31.990Z,63.78
2024-05-09T00:09:31.814Z,63.25
2024-05-09T00:10:36.166Z,61.87
2024-05-09T00:11:32.884Z,61.97
2024-05-09T00:12:31.851Z,62.14
2024-05-09T00:13:31.805Z,61.93
2024-05-09T00:14:31.954Z,62.62
2024-05-09T00:15:31.826Z,61.73
2024-05-09T00:16:31.831Z,61.50
2024-05-09T00:17:32.096Z,62.30
2024-05-09T00:18:31.938Z,61.07
2024-05-09T00:19:32.195Z,60.00
2024-05-09T00:20:38.138Z,61.06
2024-05-09T00:21:32.858Z,61.14
2024-05-09T00:22:31.838Z,61.20
2024-05-09T00:23:32.005Z,61.26
2024-05-09T00:24:31.834Z,61.42
2024-05-09T00:25:31.843Z,61.97
2024-05-09T00:26:31.926Z,59.94
2024-05-09T00:27:31.855Z,61.79
2024-05-09T00:28:31.838Z,59.32
2024-05-09T00:29:31.887Z,60.44
2024-05-09T00:30:35.333Z,60.07
2024-05-09T00:31:32.857Z,60.17
2024-05-09T00:32:32.020Z,60.46
2024-05-09T00:33:31.991Z,60.42
2024-05-09T00:34:31.958Z,61.24
2024-05-09T00:35:31.959Z,61.18
2024-05-09T00:36:31.868Z,60.07
2024-05-09T00:37:31.861Z,60.03
2024-05-09T00:38:31.993Z,60.28
2024-05-09T00:39:31.866Z,59.80
2024-05-09T00:40:38.706Z,58.97
2024-05-09T00:41:32.887Z,59.01
2024-05-09T00:42:31.868Z,59.04
2024-05-09T00:43:31.871Z,57.70
2024-05-09T00:44:31.949Z,58.25
2024-05-09T00:45:31.845Z,58.94
2024-05-09T00:46:31.855Z,59.82
2024-05-09T00:47:32.036Z,58.95
2024-05-09T00:48:32.141Z,58.39
2024-05-09T00:49:32.090Z,58.95
2024-05-09T00:50:36.419Z,57.26
2024-05-09T00:51:32.881Z,57.33
2024-05-09T00:52:31.876Z,57.33
2024-05-09T00:53:31.996Z,57.81
2024-05-09T00:54:31.886Z,58.05
2024-05-09T00:55:31.891Z,58.69
2024-05-09T00:56:31.934Z,57.80
2024-05-09T00:57:31.885Z,56.16
2024-05-09T00:58:31.898Z,56.31
2024-05-09T00:59:31.942Z,55.75
2024-05-09T01:00:38.414Z,55.85
2024-05-09T01:01:33.012Z,55.91
2024-05-09T01:02:32.003Z,56.06
2024-05-09T01:03:31.995Z,56.19
2024-05-09T01:04:31.991Z,55.87
2024-05-09T01:05:32.001Z,55.58
2024-05-09T01:06:31.905Z,56.43
2024-05-09T01:07:31.905Z,55.63
2024-05-09T01:08:31.998Z,55.06
2024-05-09T01:09:31.884Z,55.41
2024-05-09T01:10:34.852Z,56.69
2024-05-09T01:11:31.950Z,56.71
2024-05-09T01:12:32.036Z,55.75
2024-05-09T01:13:31.919Z,55.25
2024-05-09T01:14:31.965Z,54.24
2024-05-09T01:15:31.924Z,56.49
2024-05-09T01:16:31.899Z,54.60
2024-05-09T01:17:32.086Z,54.57
2024-05-09T01:18:32.054Z,54.83
2024-05-09T01:19:32.025Z,54.58
2024-05-09T01:20:40.281Z,53.41
2024-05-09T01:21:32.924Z,53.51
2024-05-09T01:22:31.923Z,53.74
2024-05-09T01:23:31.978Z,54.17
2024-05-09T01:24:31.910Z,54.74
2024-05-09T01:25:31.896Z,53.89
2024-05-09T01:26:32.017Z,55.22
2024-05-09T01:27:31.922Z,54.15
2024-05-09T01:28:31.920Z,54.35
2024-05-09T01:29:31.990Z,53.54
2024-05-09T01:30:35.394Z,52.75
2024-05-09T01:31:32.970Z,52.82
2024-05-09T01:32:32.077Z,53.19
2024-05-09T01:33:32.167Z,53.08
2024-05-09T01:34:31.943Z,53.27
2024-05-09T01:35:32.049Z,52.36
2024-05-09T01:36:31.955Z,53.00
2024-05-09T01:37:31.936Z,54.52
2024-05-09T01:38:32.011Z,55.54
2024-05-09T01:39:31.970Z,54.89
2024-05-09T01:40:37.627Z,54.21
2024-05-09T01:41:32.975Z,54.32
2024-05-09T01:42:31.963Z,54.36
2024-05-09T01:43:31.957Z,54.58
2024-05-09T01:44:32.032Z,55.08
2024-05-09T01:45:31.963Z,55.98
2024-05-09T01:46:31.958Z,53.59
2024-05-09T01:47:32.169Z,54.69
2024-05-09T01:48:32.002Z,54.24
2024-05-09T01:49:32.175Z,54.32
2024-05-09T01:51:31.977Z,55.94
2024-05-09T01:52:31.983Z,54.35
2024-05-09T01:53:32.082Z,54.34
2024-05-09T01:54:31.965Z,54.42
2024-05-09T01:55:31.974Z,54.17
2024-05-09T01:56:32.089Z,54.23
2024-05-09T01:57:31.970Z,53.82
2024-05-09T01:58:32.003Z,53.81
2024-05-09T01:59:32.085Z,52.84
2024-05-09T02:00:38.854Z,53.60
2024-05-09T02:01:55.437Z,53.70
2024-05-09T02:02:33.127Z,53.77
2024-05-09T02:03:32.098Z,54.26
2024-05-09T02:04:32.067Z,55.02
2024-05-09T02:05:32.175Z,55.63
2024-05-09T02:06:32.027Z,54.68
2024-05-09T02:07:32.022Z,56.70
2024-05-09T02:08:32.178Z,55.57
2024-05-09T02:09:32.016Z,55.57
2024-05-09T02:10:33.223Z,55.50
2024-05-09T02:11:32.108Z,56.03
2024-05-09T02:12:32.111Z,55.75
2024-05-09T02:13:32.019Z,54.39
2024-05-09T02:14:32.031Z,54.37
2024-05-09T02:15:32.024Z,55.23
2024-05-09T02:16:32.011Z,53.59
2024-05-09T02:17:32.084Z,54.54
2024-05-09T02:18:32.091Z,52.55
2024-05-09T02:19:32.143Z,53.84
2024-05-09T02:20:36.240Z,54.77
2024-05-09T02:21:33.008Z,54.81
2024-05-09T02:22:32.037Z,54.43
2024-05-09T02:23:32.108Z,54.83
2024-05-09T02:24:32.024Z,53.50
2024-05-09T02:25:32.206Z,54.73
2024-05-09T02:26:32.094Z,52.62
2024-05-09T02:27:32.050Z,52.32
2024-05-09T02:28:32.043Z,53.91
2024-05-09T02:29:32.157Z,53.13
2024-05-09T02:30:39.089Z,52.77
2024-05-09T02:31:33.059Z,52.84
2024-05-09T02:32:32.341Z,52.78
2024-05-09T02:33:32.225Z,53.07
2024-05-09T02:34:32.099Z,52.77
2024-05-09T02:35:32.115Z,52.80
2024-05-09T02:36:32.084Z,53.08
2024-05-09T02:37:32.098Z,52.37
2024-05-09T02:38:32.125Z,52.26
2024-05-09T02:39:32.072Z,51.28
2024-05-09T02:40:37.233Z,52.12
2024-05-09T02:41:33.121Z,52.22
2024-05-09T02:42:32.050Z,52.30
2024-05-09T02:43:32.091Z,52.49
2024-05-09T02:44:32.120Z,52.70
2024-05-09T02:45:32.080Z,52.88
2024-05-09T02:46:32.051Z,52.04
2024-05-09T02:47:32.205Z,52.03
2024-05-09T02:48:32.203Z,52.86
2024-05-09T02:49:32.158Z,52.31
2024-05-09T02:50:37.907Z,50.96
2024-05-09T02:51:33.092Z,51.03
2024-05-09T02:52:32.105Z,51.33
2024-05-09T02:53:32.158Z,51.66
2024-05-09T02:54:32.083Z,51.35
2024-05-09T02:55:32.102Z,52.55
2024-05-09T02:56:32.106Z,52.51
2024-05-09T02:57:32.095Z,50.83
2024-05-09T02:58:32.061Z,51.38
2024-05-09T02:59:32.152Z,51.44
2024-05-09T03:00:38.410Z,51.63
2024-05-09T03:01:33.159Z,51.71
2024-05-09T03:02:32.212Z,51.87
2024-05-09T03:03:32.247Z,52.12
2024-05-09T03:04:32.283Z,51.65
2024-05-09T03:05:32.255Z,51.71
2024-05-09T03:06:32.107Z,50.91
2024-05-09T03:07:32.082Z,51.69
2024-05-09T03:08:32.316Z,51.07
2024-05-09T03:09:32.091Z,51.52
2024-05-09T03:10:35.795Z,51.13
2024-05-09T03:11:33.249Z,51.25
2024-05-09T03:12:32.138Z,51.31
2024-05-09T03:13:32.134Z,51.42
2024-05-09T03:14:32.195Z,51.82
2024-05-09T03:15:32.118Z,52.79
2024-05-09T03:16:32.119Z,51.45
2024-05-09T03:17:32.356Z,51.77
2024-05-09T03:18:32.244Z,52.20
2024-05-09T03:19:32.179Z,52.19
2024-05-09T03:20:34.737Z,51.64
2024-05-09T03:21:32.144Z,51.70
2024-05-09T03:22:32.123Z,51.84
2024-05-09T03:23:32.180Z,51.04
2024-05-09T03:24:32.108Z,51.71
2024-05-09T03:25:32.149Z,52.54
2024-05-09T03:26:32.160Z,52.18
2024-05-09T03:27:32.131Z,52.17
2024-05-09T03:28:32.117Z,52.68
2024-05-09T03:29:32.185Z,52.33
2024-05-09T03:30:39.941Z,53.36
2024-05-09T03:31:33.157Z,53.46
2024-05-09T03:32:32.224Z,53.53
2024-05-09T03:33:32.386Z,53.69
2024-05-09T03:34:32.212Z,53.38
2024-05-09T03:35:32.237Z,53.73
2024-05-09T03:36:32.170Z,54.09
2024-05-09T03:37:32.149Z,52.76
2024-05-09T03:38:32.217Z,53.50
2024-05-09T03:39:32.148Z,53.76
2024-05-09T03:40:32.170Z,53.65
2024-05-09T03:41:32.387Z,52.22
2024-05-09T03:42:32.151Z,52.49
2024-05-09T03:43:32.147Z,51.89
2024-05-09T03:44:32.235Z,52.77
2024-05-09T03:45:32.235Z,52.97
2024-05-09T03:46:32.262Z,51.90
2024-05-09T03:47:32.495Z,53.56
2024-05-09T03:48:32.479Z,54.16
2024-05-09T03:49:32.562Z,51.38
2024-05-09T03:50:35.670Z,53.25
2024-05-09T03:51:32.443Z,53.26
2024-05-09T03:52:32.444Z,53.26
2024-05-09T03:53:32.558Z,52.48
2024-05-09T03:54:32.445Z,52.71
2024-05-09T03:55:32.532Z,52.79
2024-05-09T03:56:32.500Z,52.35
2024-05-09T03:57:32.465Z,53.47
2024-05-09T03:58:32.433Z,52.11
2024-05-09T03:59:32.542Z,50.65
2024-05-09T04:00:37.942Z,51.75
2024-05-09T04:01:33.520Z,51.83
2024-05-09T04:02:32.522Z,51.97
2024-05-09T04:03:32.723Z,52.15
2024-05-09T04:04:32.606Z,51.76
2024-05-09T04:05:32.516Z,54.16
2024-05-09T04:06:32.583Z,52.52
2024-05-09T04:07:32.463Z,51.58
2024-05-09T04:08:32.506Z,51.52
2024-05-09T04:09:32.478Z,52.36
2024-05-09T04:10:34.141Z,52.03
2024-05-09T04:11:32.782Z,51.37
2024-05-09T04:12:32.796Z,50.65
2024-05-09T04:13:32.764Z,50.46
2024-05-09T04:14:32.959Z,50.56
2024-05-09T04:15:32.921Z,51.74
2024-05-09T04:16:40.082Z,50.00
2024-05-09T04:17:40.272Z,50.00
2024-05-09T04:18:40.166Z,50.00
2024-05-09T04:19:40.194Z,50.00
2024-05-09T04:20:41.284Z,50.00
2024-05-09T04:21:40.079Z,50.00
2024-05-09T04:22:40.096Z,51.69
2024-05-09T04:23:40.140Z,51.49
2024-05-09T04:24:40.089Z,50.05
2024-05-09T04:25:40.086Z,54.02
2024-05-09T04:26:40.152Z,50.84
2024-05-09T04:27:40.121Z,51.07
2024-05-09T04:28:40.153Z,52.39
2024-05-09T04:29:40.159Z,54.98
2024-05-09T04:30:41.584Z,53.02
2024-05-09T04:31:49.453Z,50.00
2024-05-09T04:32:49.530Z,50.00
2024-05-09T04:33:49.572Z,50.00
2024-05-09T04:34:49.488Z,50.00
2024-05-09T04:35:49.419Z,50.00
2024-05-09T04:36:49.437Z,50.00
2024-05-09T04:37:49.484Z,52.26
2024-05-09T04:38:49.428Z,50.30
2024-05-09T04:39:49.441Z,51.17
2024-05-09T04:40:49.491Z,50.24
2024-05-09T04:41:49.438Z,50.00
2024-05-09T04:42:49.446Z,50.69
2024-05-09T04:43:49.564Z,52.70
2024-05-09T04:44:49.442Z,53.02
2024-05-09T04:45:49.446Z,52.95
2024-05-09T04:46:49.455Z,53.19
2024-05-09T04:47:49.637Z,52.50
2024-05-09T04:48:49.534Z,53.98
2024-05-09T04:49:49.472Z,54.00
2024-05-09T04:50:49.479Z,53.91
2024-05-09T04:51:49.472Z,52.11
2024-05-09T04:52:49.600Z,52.83
2024-05-09T04:53:49.497Z,52.47
2024-05-09T04:54:49.451Z,53.52
2024-05-09T04:55:49.552Z,53.79
2024-05-09T04:56:49.456Z,51.33
2024-05-09T04:57:49.488Z,53.62
2024-05-09T04:58:49.526Z,51.59
2024-05-09T04:59:49.468Z,52.74
2024-05-09T05:00:49.533Z,52.37
2024-05-09T05:01:49.610Z,53.25
2024-05-09T05:02:49.588Z,51.94
2024-05-09T05:03:49.792Z,53.27
2024-05-09T05:04:49.703Z,51.73
2024-05-09T05:05:49.523Z,51.39
2024-05-09T05:06:49.483Z,52.47
2024-05-09T05:07:49.509Z,51.97
2024-05-09T05:08:49.504Z,50.81
2024-05-09T05:09:49.541Z,51.50
2024-05-09T05:10:49.824Z,51.58
2024-05-09T05:11:49.830Z,52.90
2024-05-09T05:12:49.715Z,55.66
2024-05-09T05:13:49.771Z,53.24
2024-05-09T05:14:49.811Z,53.47
2024-05-09T05:15:49.837Z,53.95
2024-05-09T05:16:49.912Z,54.08
2024-05-09T05:17:50.166Z,51.71
2024-05-09T05:18:50.014Z,53.06
2024-05-09T05:19:50.177Z,53.92
2024-05-09T05:20:50.125Z,51.48
2024-05-09T05:21:50.090Z,53.57
2024-05-09T05:22:50.157Z,55.52
2024-05-09T05:23:50.198Z,50.94
2024-05-09T05:24:50.237Z,55.33
2024-05-09T05:25:50.337Z,53.59
2024-05-09T05:26:50.327Z,54.48
2024-05-09T05:27:50.366Z,53.43
2024-05-09T05:28:50.429Z,55.82
2024-05-09T05:29:50.489Z,58.01
2024-05-09T05:30:50.629Z,53.86
2024-05-09T05:31:50.671Z,53.00
2024-05-09T05:32:50.781Z,55.27
2024-05-09T05:33:50.675Z,52.86
2024-05-09T05:34:50.745Z,54.82
2024-05-09T05:35:50.698Z,55.05
2024-05-09T05:36:50.726Z,53.09
2024-05-09T05:37:50.859Z,53.97
2024-05-09T05:38:50.932Z,52.99
2024-05-09T05:39:50.877Z,52.28
2024-05-09T05:40:50.935Z,52.01
2024-05-09T05:41:50.965Z,52.47
2024-05-09T05:42:51.008Z,53.95
2024-05-09T05:43:51.111Z,52.39
2024-05-09T05:44:51.085Z,53.84
2024-05-09T05:45:51.131Z,52.66
2024-05-09T05:46:51.193Z,50.98
2024-05-09T05:47:51.385Z,53.77
2024-05-09T05:48:51.295Z,52.80
2024-05-09T05:49:51.287Z,52.14
2024-05-09T05:50:51.438Z,50.54
2024-05-09T05:51:51.374Z,51.11
2024-05-09T05:52:51.410Z,50.98
2024-05-09T05:53:51.480Z,54.23
2024-05-09T05:54:51.434Z,55.55
2024-05-09T05:55:51.511Z,51.99
2024-05-09T05:56:51.488Z,52.35
2024-05-09T05:57:51.504Z,56.17
2024-05-09T05:58:51.560Z,53.19
2024-05-09T05:59:51.555Z,50.00
2024-05-09T06:00:51.583Z,50.83
2024-05-09T06:01:51.705Z,51.41
2024-05-09T06:02:51.751Z,51.19
2024-05-09T06:03:51.830Z,50.00
2024-05-09T06:04:51.715Z,51.29
2024-05-09T06:05:51.662Z,50.52
2024-05-09T06:06:51.619Z,51.81
2024-05-09T06:07:51.668Z,50.00
2024-05-09T06:08:51.762Z,52.69
2024-05-09T06:09:51.720Z,53.72
2024-05-09T06:10:51.868Z,54.46
2024-05-09T06:11:51.967Z,53.31
2024-05-09T06:12:51.805Z,54.39
2024-05-09T06:13:51.944Z,54.82
2024-05-09T06:14:51.882Z,55.47
2024-05-09T06:15:51.987Z,54.32
2024-05-09T06:16:52.950Z,58.75
2024-05-09T06:17:52.123Z,58.89
2024-05-09T06:18:52.287Z,58.59
2024-05-09T06:19:52.196Z,59.56
2024-05-09T06:20:52.207Z,62.44
2024-05-09T06:21:52.161Z,62.16
2024-05-09T06:22:52.247Z,57.95
2024-05-09T06:23:52.295Z,61.17
2024-05-09T06:24:52.334Z,58.38
2024-05-09T06:25:52.460Z,59.88
2024-05-09T06:26:52.441Z,61.63
2024-05-09T06:27:52.513Z,62.09
2024-05-09T06:28:52.603Z,61.12
2024-05-09T06:29:52.587Z,61.36
2024-05-09T06:30:52.640Z,61.90
2024-05-09T06:31:52.801Z,62.64
2024-05-09T06:32:52.857Z,61.96
2024-05-09T06:33:52.979Z,63.55
2024-05-09T06:34:52.969Z,63.48
2024-05-09T06:35:53.052Z,61.85
2024-05-09T06:36:53.070Z,60.82
2024-05-09T06:37:53.247Z,63.14
2024-05-09T06:38:53.204Z,60.84
2024-05-09T06:39:53.286Z,59.37
2024-05-09T06:40:53.400Z,60.07
2024-05-09T06:41:53.429Z,61.92
2024-05-09T06:42:53.539Z,62.07
2024-05-09T06:43:53.619Z,60.51
2024-05-09T06:44:53.591Z,58.73
2024-05-09T06:45:53.691Z,60.54
2024-05-09T06:46:55.783Z,62.11
2024-05-09T06:47:53.929Z,62.19
2024-05-09T06:48:54.187Z,63.07
2024-05-09T06:49:53.776Z,62.26
2024-05-09T06:50:53.757Z,62.39
2024-05-09T06:51:53.746Z,60.02
2024-05-09T06:52:53.815Z,59.49
2024-05-09T06:53:53.770Z,56.22
2024-05-09T06:54:53.758Z,56.77
2024-05-09T06:55:53.878Z,57.33
2024-05-09T06:56:53.771Z,57.48
2024-05-09T06:57:53.776Z,57.96
2024-05-09T06:58:53.815Z,56.43
2024-05-09T06:59:53.767Z,59.43
2024-05-09T07:00:53.847Z,60.79
2024-05-09T07:01:53.812Z,58.13
2024-05-09T07:02:53.896Z,58.85
2024-05-09T07:03:53.838Z,60.29
2024-05-09T07:04:54.047Z,58.97
2024-05-09T07:05:53.855Z,62.57
2024-05-09T07:06:53.780Z,63.09
2024-05-09T07:07:53.795Z,65.73
2024-05-09T07:08:53.911Z,64.75
2024-05-09T07:09:53.802Z,64.67
2024-05-09T07:10:53.928Z,65.16
2024-05-09T07:11:53.906Z,65.28
2024-05-09T07:12:53.830Z,65.48
2024-05-09T07:13:53.901Z,64.77
2024-05-09T07:14:53.845Z,64.86
2024-05-09T07:15:53.919Z,68.70
2024-05-09T07:16:54.086Z,70.82
2024-05-09T07:17:54.211Z,70.12
2024-05-09T07:18:54.196Z,69.67
2024-05-09T07:19:54.141Z,70.85
2024-05-09T07:20:54.228Z,71.43
2024-05-09T07:21:54.248Z,73.28
2024-05-09T07:22:54.321Z,70.17
2024-05-09T07:23:54.443Z,70.08
2024-05-09T07:24:54.440Z,70.68
2024-05-09T07:25:54.605Z,69.71
2024-05-09T07:26:54.548Z,71.87
2024-05-09T07:27:54.667Z,74.52
2024-05-09T07:28:54.690Z,72.87
2024-05-09T07:29:54.725Z,70.35
2024-05-09T07:30:54.789Z,73.43
2024-05-09T07:31:54.909Z,70.56
2024-05-09T07:32:55.067Z,72.84
2024-05-09T07:33:55.078Z,74.57
2024-05-09T07:34:55.046Z,76.38
2024-05-09T07:35:55.086Z,76.42
2024-05-09T07:36:55.124Z,74.63
2024-05-09T07:37:55.251Z,74.69
2024-05-09T07:38:55.245Z,77.14
2024-05-09T07:39:55.309Z,76.07
2024-05-09T07:40:55.426Z,75.40
2024-05-09T07:41:55.405Z,77.49
2024-05-09T07:42:55.474Z,76.98
2024-05-09T07:43:55.568Z,75.90
2024-05-09T07:44:58.637Z,78.09
2024-05-09T07:45:59.167Z,78.21
2024-05-09T07:49:44.066Z,78.42
2024-05-09T07:50:34.738Z,78.47
2024-05-09T07:52:38.861Z,78.55
2024-05-09T07:53:21.853Z,78.66
2024-05-09T07:53:58.418Z,78.70
2024-05-09T07:54:56.824Z,78.81
2024-05-09T07:55:56.203Z,80.77
2024-05-09T07:56:55.724Z,83.25
2024-05-09T07:57:55.665Z,85.27
2024-05-09T07:58:55.850Z,90.07
2024-05-09T07:59:55.621Z,88.43
2024-05-09T08:00:55.702Z,87.44
2024-05-09T08:01:55.738Z,85.71
2024-05-09T08:02:55.665Z,84.95
2024-05-09T08:03:55.775Z,84.39
2024-05-09T08:04:55.714Z,82.96
2024-05-09T08:05:55.620Z,83.12
2024-05-09T08:06:55.733Z,82.25
2024-05-09T08:07:55.744Z,81.14
2024-05-09T08:08:56.028Z,79.67
2024-05-09T08:09:55.873Z,79.77
2024-05-09T08:10:55.880Z,80.15
2024-05-09T08:11:55.934Z,77.81
2024-05-09T08:12:55.957Z,76.54
2024-05-09T08:13:55.937Z,74.38
2024-05-09T08:14:55.954Z,77.12
2024-05-09T08:15:56.096Z,73.42
2024-05-09T08:16:56.140Z,76.12
2024-05-09T08:17:56.596Z,77.06
2024-05-09T08:18:56.229Z,74.39
2024-05-09T08:19:56.147Z,73.71
2024-05-09T08:20:56.181Z,75.94
2024-05-09T08:21:56.265Z,73.09
2024-05-09T08:22:56.306Z,75.70
2024-05-09T08:23:56.318Z,74.10
2024-05-09T08:24:56.352Z,74.87
2024-05-09T08:25:56.385Z,72.49
2024-05-09T08:26:56.399Z,72.84
2024-05-09T08:27:56.488Z,77.17
2024-05-09T08:28:56.502Z,77.81
2024-05-09T08:29:56.593Z,75.07
2024-05-09T08:30:56.629Z,74.55
2024-05-09T08:31:56.732Z,73.18
2024-05-09T08:32:56.710Z,72.73
2024-05-09T08:33:56.850Z,72.08
2024-05-09T08:34:56.855Z,72.03
2024-05-09T08:35:56.697Z,70.59
2024-05-09T08:37:01.584Z,71.54
2024-05-09T08:37:57.833Z,71.71
2024-05-09T08:38:56.758Z,72.26
2024-05-09T08:39:56.811Z,72.85
2024-05-09T08:40:56.834Z,72.88
2024-05-09T08:41:56.765Z,74.98
2024-05-09T08:42:56.823Z,74.41
2024-05-09T08:43:56.749Z,75.14
2024-05-09T08:44:56.737Z,75.89
2024-05-09T08:45:56.863Z,76.41
2024-05-09T08:46:56.747Z,74.87
2024-05-09T08:47:56.865Z,76.43
2024-05-09T08:48:56.943Z,77.06
2024-05-09T08:49:56.797Z,74.07
2024-05-09T08:50:56.787Z,75.67
2024-05-09T08:51:56.801Z,75.69
2024-05-09T08:52:56.762Z,74.69
2024-05-09T08:53:56.775Z,73.96
2024-05-09T08:54:56.777Z,75.35
2024-05-09T08:55:56.778Z,76.44
2024-05-09T08:56:56.793Z,74.52
2024-05-09T08:57:56.852Z,74.75
2024-05-09T08:58:56.782Z,74.92
2024-05-09T08:59:56.760Z,75.14
2024-05-09T09:00:56.905Z,75.91
2024-05-09T09:01:56.823Z,75.44
2024-05-09T09:02:56.815Z,77.38
2024-05-09T09:03:56.878Z,77.03
2024-05-09T09:04:56.872Z,78.81
2024-05-09T09:05:56.805Z,77.56
2024-05-09T09:06:58.300Z,76.40
2024-05-09T09:07:56.860Z,75.13
2024-05-09T09:08:56.850Z,75.21
2024-05-09T09:09:56.933Z,73.93
2024-05-09T09:10:56.907Z,74.24
2024-05-09T09:11:56.951Z,73.87
2024-05-09T09:12:56.948Z,73.20
2024-05-09T09:13:56.951Z,72.38
2024-05-09T09:14:56.979Z,72.39
2024-05-09T09:15:57.027Z,75.22
2024-05-09T09:16:56.997Z,72.59
2024-05-09T09:17:57.086Z,74.12
2024-05-09T09:18:57.184Z,76.26
2024-05-09T09:19:57.231Z,73.00
2024-05-09T09:20:57.034Z,71.11
2024-05-09T09:21:57.143Z,70.80
2024-05-09T09:22:57.089Z,69.40
2024-05-09T09:23:57.141Z,68.36
2024-05-09T09:24:57.154Z,67.60
2024-05-09T09:25:57.186Z,65.78
2024-05-09T09:26:57.172Z,61.64
2024-05-09T09:27:57.253Z,62.54
2024-05-09T09:28:57.224Z,62.65
2024-05-09T09:29:57.273Z,59.47
2024-05-09T09:30:57.312Z,58.60
2024-05-09T09:31:57.315Z,59.58
2024-05-09T09:32:57.427Z,59.83
2024-05-09T09:33:57.773Z,61.23
2024-05-09T09:34:57.436Z,58.56
2024-05-09T09:35:57.482Z,56.90
2024-05-09T09:36:57.548Z,58.86
2024-05-09T09:37:57.516Z,55.43
2024-05-09T09:38:57.544Z,54.66
2024-05-09T09:39:57.661Z,59.32
2024-05-09T09:40:57.653Z,55.07
2024-05-09T09:41:57.643Z,55.06
2024-05-09T09:42:57.755Z,54.79
2024-05-09T09:43:57.684Z,54.20
2024-05-09T09:45:04.354Z,54.20
2024-05-09T09:45:58.775Z,54.21
2024-05-09T09:46:57.741Z,54.32
2024-05-09T09:47:57.772Z,52.08
2024-05-09T09:48:57.869Z,50.46
2024-05-09T09:49:57.752Z,51.92
2024-05-09T09:50:57.766Z,50.70
2024-05-09T09:51:57.804Z,51.17
2024-05-09T09:52:57.734Z,52.51
2024-05-09T09:53:57.755Z,51.50
2024-05-09T09:54:57.795Z,51.32
2024-05-09T09:55:57.770Z,51.97
2024-05-09T09:56:57.825Z,53.65
2024-05-09T09:57:57.823Z,55.25
2024-05-09T09:58:57.774Z,53.32
2024-05-09T09:59:57.768Z,54.06
2024-05-09T10:00:57.857Z,54.14
2024-05-09T10:01:58.367Z,53.47
2024-05-09T10:02:57.863Z,52.75
2024-05-09T10:03:58.037Z,54.71
2024-05-09T10:04:58.043Z,54.22
2024-05-09T10:05:58.040Z,54.81
2024-05-09T10:06:58.047Z,55.09
2024-05-09T10:07:58.195Z,54.97
2024-05-09T10:08:58.087Z,54.60
2024-05-09T10:09:58.164Z,56.70
2024-05-09T10:10:58.251Z,54.46
2024-05-09T10:12:00.433Z,55.31
2024-05-09T10:12:58.524Z,53.96
2024-05-09T10:13:58.467Z,50.78
2024-05-09T10:14:58.522Z,53.60
2024-05-09T10:15:58.574Z,53.75
2024-05-09T10:16:58.629Z,51.04
2024-05-09T10:17:58.768Z,56.22
2024-05-09T10:18:58.894Z,55.99
2024-05-09T10:19:58.809Z,55.11
2024-05-09T10:20:58.771Z,53.09
2024-05-09T10:21:58.796Z,54.13
2024-05-09T10:22:58.857Z,53.08
2024-05-09T10:23:58.909Z,54.42
2024-05-09T10:24:59.189Z,54.60
2024-05-09T10:25:59.017Z,53.19
2024-05-09T10:26:59.006Z,52.84
2024-05-09T10:27:59.092Z,53.56
2024-05-09T10:28:59.102Z,55.14
2024-05-09T10:29:59.133Z,55.30
2024-05-09T10:30:59.180Z,55.23
2024-05-09T10:31:59.207Z,52.84
2024-05-09T10:32:59.342Z,52.21
2024-05-09T10:33:59.508Z,53.37
2024-05-09T10:34:59.380Z,52.81
2024-05-09T10:35:59.392Z,51.14
2024-05-09T10:37:00.393Z,52.94
2024-05-09T10:37:59.493Z,54.79
2024-05-09T10:38:59.493Z,52.48
2024-05-09T10:39:59.564Z,52.47
2024-05-09T10:40:59.588Z,52.79
2024-05-09T10:41:59.607Z,52.06
2024-05-09T10:43:01.913Z,55.14
2024-05-09T10:43:59.688Z,56.92
2024-05-09T10:44:59.680Z,54.99
2024-05-09T10:45:59.749Z,50.23
2024-05-09T10:46:59.702Z,56.33
2024-05-09T10:47:59.805Z,54.34
2024-05-09T10:49:01.689Z,55.44
2024-05-09T10:49:59.746Z,55.44
2024-05-09T10:50:59.713Z,53.82
2024-05-09T10:51:59.769Z,50.68
2024-05-09T10:52:59.696Z,51.21
2024-05-09T10:53:59.686Z,48.64
2024-05-09T10:55:01.047Z,53.80
2024-05-09T10:55:59.709Z,55.70
2024-05-09T10:56:59.693Z,52.23
2024-05-09T10:57:59.769Z,50.87
2024-05-09T10:58:59.679Z,51.95
2024-05-09T10:59:59.675Z,50.97
2024-05-09T11:01:02.373Z,55.23
2024-05-09T11:01:59.761Z,53.62
2024-05-09T11:02:59.720Z,50.00
2024-05-09T11:03:59.918Z,52.58
2024-05-09T11:04:59.747Z,50.62
2024-05-09T11:05:59.692Z,53.06
2024-05-09T11:07:01.564Z,52.95
2024-05-09T11:07:59.723Z,53.07
2024-05-09T11:08:59.695Z,51.83
2024-05-09T11:09:59.751Z,50.66
2024-05-09T11:10:59.968Z,48.88
2024-05-09T11:11:59.777Z,49.16
2024-05-09T11:12:59.806Z,50.65
2024-05-09T11:13:59.729Z,52.30
2024-05-09T11:14:59.704Z,52.05
2024-05-09T11:15:59.753Z,50.41
2024-05-09T11:16:59.729Z,50.28
2024-05-09T11:17:59.752Z,52.47
2024-05-09T11:18:59.970Z,50.47
2024-05-09T11:19:59.753Z,51.59
2024-05-09T11:20:59.722Z,53.70
2024-05-09T11:21:59.794Z,52.54
2024-05-09T11:22:59.817Z,50.61
2024-05-09T11:23:59.768Z,50.40
2024-05-09T11:24:59.817Z,51.22
2024-05-09T11:25:59.736Z,50.00
2024-05-09T11:26:59.736Z,52.79
2024-05-09T11:27:59.761Z,51.14
2024-05-09T11:28:59.729Z,54.55
2024-05-09T11:29:59.731Z,55.24
2024-05-09T11:30:59.958Z,50.31
2024-05-09T11:31:59.740Z,54.76
2024-05-09T11:33:00.121Z,55.87
2024-05-09T11:33:59.765Z,58.16
2024-05-09T11:34:59.763Z,57.51
2024-05-09T11:35:59.730Z,56.37
2024-05-09T11:36:59.784Z,55.96
2024-05-09T11:37:59.750Z,52.19
2024-05-09T11:38:59.792Z,51.59
2024-05-09T11:39:59.890Z,52.05
2024-05-09T11:40:59.887Z,51.72
2024-05-09T11:41:59.957Z,52.01
2024-05-09T11:43:00.046Z,51.89
2024-05-09T11:44:00.037Z,52.05
2024-05-09T11:45:00.120Z,52.47
2024-05-09T11:46:00.218Z,52.96
2024-05-09T11:47:00.188Z,52.73
2024-05-09T11:48:00.436Z,51.47
2024-05-09T11:49:00.526Z,53.08
2024-05-09T11:50:00.496Z,51.26
2024-05-09T11:51:00.396Z,51.65
2024-05-09T11:52:00.672Z,51.57
2024-05-09T11:53:00.477Z,51.60
2024-05-09T11:54:00.556Z,51.59
2024-05-09T11:55:00.637Z,52.75
2024-05-09T11:56:00.634Z,56.85
2024-05-09T11:57:00.667Z,53.31
2024-05-09T11:58:00.744Z,55.05
2024-05-09T11:59:00.807Z,53.65
2024-05-09T12:00:00.839Z,52.24
2024-05-09T12:01:00.941Z,51.34
2024-05-09T12:02:01.002Z,54.97
2024-05-09T12:03:01.002Z,53.77
2024-05-09T12:04:01.387Z,51.01
2024-05-09T12:05:01.136Z,53.26
2024-05-09T12:06:01.311Z,53.36
2024-05-09T12:07:01.192Z,54.50
2024-05-09T12:08:01.196Z,53.01
2024-05-09T12:09:01.269Z,52.70
2024-05-09T12:10:01.382Z,50.71
2024-05-09T12:11:01.604Z,54.48
2024-05-09T12:12:01.412Z,54.32
2024-05-09T12:13:01.533Z,55.28
2024-05-09T12:14:01.506Z,54.60
2024-05-09T12:15:01.556Z,55.76
2024-05-09T12:16:01.716Z,53.70
2024-05-09T12:17:01.680Z,53.07
2024-05-09T12:18:03.831Z,54.14
2024-05-09T12:19:01.927Z,55.47
2024-05-09T12:20:01.713Z,53.15
2024-05-09T12:21:01.730Z,56.25
2024-05-09T12:22:01.754Z,58.55
2024-05-09T12:23:01.695Z,59.73
2024-05-09T12:24:01.708Z,61.90
2024-05-09T12:25:01.723Z,62.03
2024-05-09T12:26:01.780Z,60.06
2024-05-09T12:27:01.719Z,61.40
2024-05-09T12:28:01.868Z,61.10
2024-05-09T12:29:01.728Z,59.29
2024-05-09T12:30:01.691Z,60.18
2024-05-09T12:31:01.730Z,60.64
2024-05-09T12:32:01.762Z,60.52
2024-05-09T12:33:01.812Z,61.27
2024-05-09T12:34:01.863Z,62.55
2024-05-09T12:35:01.733Z,61.42
2024-05-09T12:36:01.717Z,61.78
2024-05-09T12:37:01.762Z,61.06
2024-05-09T12:38:01.750Z,61.75
2024-05-09T12:39:01.735Z,60.58
2024-05-09T12:40:02.161Z,63.42
2024-05-09T12:41:01.791Z,66.02
2024-05-09T12:42:01.744Z,61.61
2024-05-09T12:43:01.804Z,62.47
2024-05-09T12:44:01.741Z,63.46
2024-05-09T12:45:01.839Z,64.49
2024-05-09T12:46:01.819Z,67.57
2024-05-09T12:47:01.763Z,65.91
2024-05-09T12:48:01.798Z,63.79
2024-05-09T12:49:01.835Z,62.53
2024-05-09T12:50:01.806Z,62.23
2024-05-09T12:51:01.745Z,64.23
2024-05-09T12:52:01.728Z,63.35
2024-05-09T12:53:02.575Z,66.00
2024-05-09T12:54:01.728Z,62.85
2024-05-09T12:55:01.742Z,63.82
2024-05-09T12:56:03.168Z,63.04
2024-05-09T12:57:01.896Z,64.05